Ripon, Wisconsin
Current Conditions -  °F | °C
As of 4:42 PM on Friday 19 Dec 2014 (Local Time) from KOSH Reporting Station
Broken Clouds Broken Clouds  
Wind Chill: -3°   Ceiling: 2900
Heat Index: -3°   Visibility: 10mi
Dew Point: -8°   Wind: 0mph
Humidity: 69%   Direction: NA
Pressure: 30.29"   Gusts: NA
Location:  43.85°N, 88.84°W
Report Text: KOSH 192242Z 00000KT 10SM BKN029 M03/M08 A3029 RMK AO2 T10281078
Loading
Personal Weather Stations






























Interactive Weather Map New forecast layout! Learn more

10-Day Weather Forecast

Advertisements
Track Severe Weather on mobile